FKYS/NSI METAR and TAF weather

Enter ICAO airport designator
Station Type Date Time Source
FKYS METAR 2019/08/22 02:00 UTC NOAA

FKYS 220200Z 27005KT 7000 FEW003 BKN006 21/21 Q1018 NOSIG


Station Type Date Time Source
FKYS Decoded METAR 2019/08/22 02:00 UTC NOAA

Station name not available
Aug 21, 2019 - 10:00 PM EDT / 2019.08.22 0200 UTC
Wind: from the W (270 degrees) at 6 MPH (5 KT):0
Visibility: 4 mile(s):0
Sky conditions: mostly cloudy
Temperature: 69 F (21 C)
Dew Point: 69 F (21 C)
Relative Humidity: 100%
Pressure (altimeter): 30.06 in. Hg (1018 hPa)
ob: FKYS 220200Z 27005KT 7000 FEW003 BKN006 21/21 Q1018 NOSIG
cycle: 2

Station Type Date Time Source
FKYS TAF 2019/08/21 18:06 UTC NOAA

TAF FKYS 211700Z 2118/2218 26005KT 8000 BKN013 FEW020CB
BECMG 2120/2122 BKN006
BECMG 2208/2210 BKN016

Example: see airport list